sensor_id;sensor_type;location;lat;lon;timestamp;pressure;altitude;pressure_sealevel;temperature;humidity
30110;BME280;14965;50.660;13.226;2023-02-15T00:00:37;96211.28;;;-1.60;96.72
30110;BME280;14965;50.660;13.226;2023-02-15T00:03:02;96205.84;;;-1.60;96.91
30110;BME280;14965;50.660;13.226;2023-02-15T00:05:30;96209.34;;;-1.60;97.07
30110;BME280;14965;50.660;13.226;2023-02-15T00:07:56;96210.16;;;-1.59;96.95
30110;BME280;14965;50.660;13.226;2023-02-15T00:10:22;96216.38;;;-1.59;96.95
30110;BME280;14965;50.660;13.226;2023-02-15T00:12:48;96209.34;;;-1.60;96.69
30110;BME280;14965;50.660;13.226;2023-02-15T00:15:13;96222.91;;;-1.60;97.26
30110;BME280;14965;50.660;13.226;2023-02-15T00:17:41;96207.78;;;-1.61;97.29
30110;BME280;14965;50.660;13.226;2023-02-15T00:20:08;96214.78;;;-1.60;97.35
30110;BME280;14965;50.660;13.226;2023-02-15T00:22:34;96212.56;;;-1.58;97.30
30110;BME280;14965;50.660;13.226;2023-02-15T00:25:00;96204.09;;;-1.56;97.55
30110;BME280;14965;50.660;13.226;2023-02-15T00:27:25;96204.44;;;-1.58;97.77
30110;BME280;14965;50.660;13.226;2023-02-15T00:29:51;96206.34;;;-1.58;97.48
30110;BME280;14965;50.660;13.226;2023-02-15T00:32:17;96196.94;;;-1.61;97.54
30110;BME280;14965;50.660;13.226;2023-02-15T00:34:44;96203.81;;;-1.63;97.29
30110;BME280;14965;50.660;13.226;2023-02-15T00:37:10;96199.38;;;-1.68;97.25
30110;BME280;14965;50.660;13.226;2023-02-15T00:39:36;96198.91;;;-1.70;97.01
30110;BME280;14965;50.660;13.226;2023-02-15T00:42:02;96194.13;;;-1.73;96.92
30110;BME280;14965;50.660;13.226;2023-02-15T00:44:27;96195.59;;;-1.76;97.14
30110;BME280;14965;50.660;13.226;2023-02-15T00:46:53;96193.22;;;-1.77;96.85
30110;BME280;14965;50.660;13.226;2023-02-15T00:49:19;96193.53;;;-1.79;96.80
30110;BME280;14965;50.660;13.226;2023-02-15T00:51:46;96190.03;;;-1.79;96.84
30110;BME280;14965;50.660;13.226;2023-02-15T00:54:12;96184.63;;;-1.79;96.92
30110;BME280;14965;50.660;13.226;2023-02-15T00:56:38;96188.91;;;-1.78;97.00
30110;BME280;14965;50.660;13.226;2023-02-15T00:59:04;96184.78;;;-1.76;97.23
30110;BME280;14965;50.660;13.226;2023-02-15T01:01:30;96191.78;;;-1.74;97.07
30110;BME280;14965;50.660;13.226;2023-02-15T01:03:55;96183.31;;;-1.73;97.32
30110;BME280;14965;50.660;13.226;2023-02-15T01:06:21;96176.47;;;-1.70;97.53
30110;BME280;14965;50.660;13.226;2023-02-15T01:08:48;96178.38;;;-1.71;97.20
30110;BME280;14965;50.660;13.226;2023-02-15T01:11:17;96177.09;;;-1.73;97.38
30110;BME280;14965;50.660;13.226;2023-02-15T01:13:43;96179.34;;;-1.76;97.32
30110;BME280;14965;50.660;13.226;2023-02-15T01:16:09;96179.22;;;-1.79;97.28
30110;BME280;14965;50.660;13.226;2023-02-15T01:18:35;96170.31;;;-1.80;97.16
30110;BME280;14965;50.660;13.226;2023-02-15T01:21:10;96174.44;;;-1.82;97.24
30110;BME280;14965;50.660;13.226;2023-02-15T01:23:36;96172.38;;;-1.85;97.20
30110;BME280;14965;50.660;13.226;2023-02-15T01:26:03;96182.09;;;-1.84;97.20
30110;BME280;14965;50.660;13.226;2023-02-15T01:28:30;96170.47;;;-1.85;96.99
30110;BME280;14965;50.660;13.226;2023-02-15T01:30:56;96167.75;;;-1.85;97.24
30110;BME280;14965;50.660;13.226;2023-02-15T01:33:22;96164.25;;;-1.85;97.06
30110;BME280;14965;50.660;13.226;2023-02-15T01:35:48;96163.47;;;-1.86;97.25
30110;BME280;14965;50.660;13.226;2023-02-15T01:38:14;96159.97;;;-1.86;97.16
30110;BME280;14965;50.660;13.226;2023-02-15T01:40:40;96163.47;;;-1.86;97.16
30110;BME280;14965;50.660;13.226;2023-02-15T01:43:11;96161.88;;;-1.87;97.30
30110;BME280;14965;50.660;13.226;2023-02-15T01:45:38;96158.69;;;-1.89;97.12
30110;BME280;14965;50.660;13.226;2023-02-15T01:48:16;96155.06;;;-1.93;96.99
30110;BME280;14965;50.660;13.226;2023-02-15T01:50:47;96152.22;;;-1.96;97.05
30110;BME280;14965;50.660;13.226;2023-02-15T01:53:21;96154.47;;;-1.98;96.89
30110;BME280;14965;50.660;13.226;2023-02-15T01:55:54;96140.47;;;-2.01;96.78
30110;BME280;14965;50.660;13.226;2023-02-15T01:58:25;96142.34;;;-2.01;97.21
30110;BME280;14965;50.660;13.226;2023-02-15T02:00:52;96132.00;;;-1.99;97.17
30110;BME280;14965;50.660;13.226;2023-02-15T02:03:30;96138.22;;;-1.98;96.91
30110;BME280;14965;50.660;13.226;2023-02-15T02:06:00;96133.28;;;-1.96;97.10
30110;BME280;14965;50.660;13.226;2023-02-15T02:08:27;96128.19;;;-1.98;97.24
30110;BME280;14965;50.660;13.226;2023-02-15T02:10:53;96127.72;;;-2.00;97.16
30110;BME280;14965;50.660;13.226;2023-02-15T02:13:19;96112.56;;;-2.01;97.43
30110;BME280;14965;50.660;13.226;2023-02-15T02:15:54;96118.81;;;-2.01;97.23
30110;BME280;14965;50.660;13.226;2023-02-15T02:18:36;96119.13;;;-2.02;97.45
30110;BME280;14965;50.660;13.226;2023-02-15T02:21:52;96120.69;;;-2.01;97.19
30110;BME280;14965;50.660;13.226;2023-02-15T02:25:14;96113.56;;;-2.06;97.29
30110;BME280;14965;50.660;13.226;2023-02-15T02:27:49;96110.41;;;-2.08;96.99
30110;BME280;14965;50.660;13.226;2023-02-15T02:33:43;96110.41;;;-2.08;97.10
30110;BME280;14965;50.660;13.226;2023-02-15T02:36:20;96101.16;;;-2.07;97.21
30110;BME280;14965;50.660;13.226;2023-02-15T02:39:07;96099.25;;;-2.06;97.10
30110;BME280;14965;50.660;13.226;2023-02-15T02:41:44;96097.00;;;-2.04;97.21
30110;BME280;14965;50.660;13.226;2023-02-15T02:44:23;96091.59;;;-2.04;97.23
30110;BME280;14965;50.660;13.226;2023-02-15T02:46:59;96090.47;;;-2.03;97.41
30110;BME280;14965;50.660;13.226;2023-02-15T02:49:34;96087.28;;;-2.05;97.14
30110;BME280;14965;50.660;13.226;2023-02-15T02:52:03;96086.50;;;-2.06;97.43
30110;BME280;14965;50.660;13.226;2023-02-15T02:54:31;96091.47;;;-2.08;97.23
30110;BME280;14965;50.660;13.226;2023-02-15T02:57:03;96081.41;;;-2.07;97.26
30110;BME280;14965;50.660;13.226;2023-02-15T02:59:33;96081.88;;;-2.05;97.33
30110;BME280;14965;50.660;13.226;2023-02-15T03:02:08;96087.78;;;-2.03;97.70
30110;BME280;14965;50.660;13.226;2023-02-15T03:04:44;96075.81;;;-2.02;97.36
30110;BME280;14965;50.660;13.226;2023-02-15T03:07:16;96071.53;;;-2.03;97.47
30110;BME280;14965;50.660;13.226;2023-02-15T03:09:49;96076.94;;;-2.03;97.78
30110;BME280;14965;50.660;13.226;2023-02-15T03:12:21;96070.25;;;-2.06;97.44
30110;BME280;14965;50.660;13.226;2023-02-15T03:14:52;96071.88;;;-2.05;97.35
30110;BME280;14965;50.660;13.226;2023-02-15T03:17:22;96076.47;;;-2.05;97.26
30110;BME280;14965;50.660;13.226;2023-02-15T03:19:53;96070.25;;;-2.06;97.36
30110;BME280;14965;50.660;13.226;2023-02-15T03:22:26;96068.69;;;-2.07;97.32
30110;BME280;14965;50.660;13.226;2023-02-15T03:25:02;96066.31;;;-2.08;97.29
30110;BME280;14965;50.660;13.226;2023-02-15T03:27:39;96060.91;;;-2.08;97.23
30110;BME280;14965;50.660;13.226;2023-02-15T03:30:08;96065.19;;;-2.07;97.52
30110;BME280;14965;50.660;13.226;2023-02-15T03:32:38;96064.06;;;-2.06;97.24
30110;BME280;14965;50.660;13.226;2023-02-15T03:35:07;96069.47;;;-2.06;97.38
30110;BME280;14965;50.660;13.226;2023-02-15T03:37:39;96066.31;;;-2.08;97.29
30110;BME280;14965;50.660;13.226;2023-02-15T03:40:11;96075.22;;;-2.08;97.01
30110;BME280;14965;50.660;13.226;2023-02-15T03:42:48;96063.13;;;-2.10;97.30
30110;BME280;14965;50.660;13.226;2023-02-15T03:45:22;96066.47;;;-2.13;96.90
30110;BME280;14965;50.660;13.226;2023-02-15T03:47:52;96065.22;;;-2.16;97.02
30110;BME280;14965;50.660;13.226;2023-02-15T03:50:26;96073.66;;;-2.17;96.67
30110;BME280;14965;50.660;13.226;2023-02-15T03:52:55;96063.50;;;-2.20;96.93
30110;BME280;14965;50.660;13.226;2023-02-15T03:55:22;96061.94;;;-2.21;96.68
30110;BME280;14965;50.660;13.226;2023-02-15T03:57:49;96074.97;;;-2.23;96.64
30110;BME280;14965;50.660;13.226;2023-02-15T04:00:19;96071.81;;;-2.26;96.87
30110;BME280;14965;50.660;13.226;2023-02-15T04:03:14;96079.13;;;-2.26;96.89
30110;BME280;14965;50.660;13.226;2023-02-15T04:05:48;96070.88;;;-2.30;96.90
30110;BME280;14965;50.660;13.226;2023-02-15T04:08:13;96068.19;;;-2.30;96.54
30110;BME280;14965;50.660;13.226;2023-02-15T04:10:39;96071.34;;;-2.28;96.64
30110;BME280;14965;50.660;13.226;2023-02-15T04:13:05;96068.63;;;-2.28;96.92
30110;BME280;14965;50.660;13.226;2023-02-15T04:15:31;96064.34;;;-2.29;96.60
30110;BME280;14965;50.660;13.226;2023-02-15T04:17:57;96066.13;;;-2.33;96.54
30110;BME280;14965;50.660;13.226;2023-02-15T04:20:23;96061.03;;;-2.34;96.48
30110;BME280;14965;50.660;13.226;2023-02-15T04:22:52;96054.03;;;-2.35;96.27
30110;BME280;14965;50.660;13.226;2023-02-15T04:25:18;96060.22;;;-2.35;96.68
30110;BME280;14965;50.660;13.226;2023-02-15T04:27:49;96054.81;;;-2.35;96.01
30110;BME280;14965;50.660;13.226;2023-02-15T04:30:18;96050.88;;;-2.37;96.43
30110;BME280;14965;50.660;13.226;2023-02-15T04:32:45;96040.34;;;-2.39;96.21
30110;BME280;14965;50.660;13.226;2023-02-15T04:35:11;96050.09;;;-2.38;96.27
30110;BME280;14965;50.660;13.226;2023-02-15T04:37:38;96045.13;;;-2.36;96.33
30110;BME280;14965;50.660;13.226;2023-02-15T04:40:08;96043.22;;;-2.35;96.47
30110;BME280;14965;50.660;13.226;2023-02-15T04:42:34;96044.34;;;-2.36;96.25
30110;BME280;14965;50.660;13.226;2023-02-15T04:45:00;96050.88;;;-2.37;96.55
30110;BME280;14965;50.660;13.226;2023-02-15T04:47:27;96050.72;;;-2.41;96.54
30110;BME280;14965;50.660;13.226;2023-02-15T04:49:52;96043.75;;;-2.42;96.37
30110;BME280;14965;50.660;13.226;2023-02-15T04:52:18;96044.72;;;-2.46;96.05
30110;BME280;14965;50.660;13.226;2023-02-15T04:54:45;96036.63;;;-2.55;95.68
30110;BME280;14965;50.660;13.226;2023-02-15T04:57:12;96043.50;;;-2.58;95.69
30110;BME280;14965;50.660;13.226;2023-02-15T04:59:38;96038.06;;;-2.58;95.50
30110;BME280;14965;50.660;13.226;2023-02-15T05:02:04;96031.53;;;-2.57;96.02
30110;BME280;14965;50.660;13.226;2023-02-15T05:04:30;96032.81;;;-2.54;95.90
30110;BME280;14965;50.660;13.226;2023-02-15T05:06:56;96029.78;;;-2.53;96.10
30110;BME280;14965;50.660;13.226;2023-02-15T05:09:22;96031.69;;;-2.53;95.70
30110;BME280;14965;50.660;13.226;2023-02-15T05:11:48;96019.28;;;-2.54;96.17
30110;BME280;14965;50.660;13.226;2023-02-15T05:14:15;96021.50;;;-2.56;95.82
30110;BME280;14965;50.660;13.226;2023-02-15T05:16:41;96022.63;;;-2.57;96.41
30110;BME280;14965;50.660;13.226;2023-02-15T05:19:06;96024.56;;;-2.58;96.29
30110;BME280;14965;50.660;13.226;2023-02-15T05:21:33;96020.59;;;-2.60;96.03
30110;BME280;14965;50.660;13.226;2023-02-15T05:23:59;96018.56;;;-2.63;96.33
30110;BME280;14965;50.660;13.226;2023-02-15T05:26:25;96017.28;;;-2.66;96.01
30110;BME280;14965;50.660;13.226;2023-02-15T05:28:52;96016.94;;;-2.64;96.19
30110;BME280;14965;50.660;13.226;2023-02-15T05:31:19;96015.84;;;-2.63;96.15
30110;BME280;14965;50.660;13.226;2023-02-15T05:33:46;96025.53;;;-2.62;96.33
30110;BME280;14965;50.660;13.226;2023-02-15T05:36:12;96019.00;;;-2.61;96.47
30110;BME280;14965;50.660;13.226;2023-02-15T05:38:39;96029.03;;;-2.62;96.13
30110;BME280;14965;50.660;13.226;2023-02-15T05:41:06;96024.41;;;-2.61;96.32
30110;BME280;14965;50.660;13.226;2023-02-15T05:43:33;96028.53;;;-2.64;96.19
30110;BME280;14965;50.660;13.226;2023-02-15T05:45:59;96032.38;;;-2.65;96.07
30110;BME280;14965;50.660;13.226;2023-02-15T05:48:27;96032.38;;;-2.65;96.55
30110;BME280;14965;50.660;13.226;2023-02-15T05:50:58;96033.16;;;-2.64;96.03
30110;BME280;14965;50.660;13.226;2023-02-15T05:53:24;96037.47;;;-2.63;96.23
30110;BME280;14965;50.660;13.226;2023-02-15T05:55:50;96041.28;;;-2.64;96.31
30110;BME280;14965;50.660;13.226;2023-02-15T05:58:16;96037.34;;;-2.67;96.23
30110;BME280;14965;50.660;13.226;2023-02-15T06:00:41;96040.34;;;-2.68;96.42
30110;BME280;14965;50.660;13.226;2023-02-15T06:03:07;96041.47;;;-2.69;96.21
30110;BME280;14965;50.660;13.226;2023-02-15T06:05:34;96037.97;;;-2.70;96.08
30110;BME280;14965;50.660;13.226;2023-02-15T06:08:00;96037.19;;;-2.70;96.21
30110;BME280;14965;50.660;13.226;2023-02-15T06:10:26;96035.13;;;-2.73;95.67
30110;BME280;14965;50.660;13.226;2023-02-15T06:12:52;96043.09;;;-2.77;95.72
30110;BME280;14965;50.660;13.226;2023-02-15T06:15:18;96042.28;;;-2.78;95.59
30110;BME280;14965;50.660;13.226;2023-02-15T06:17:44;96052.31;;;-2.78;95.46
30110;BME280;14965;50.660;13.226;2023-02-15T06:20:11;96049.94;;;-2.80;95.52
30110;BME280;14965;50.660;13.226;2023-02-15T06:22:38;96048.34;;;-2.81;95.30
30110;BME280;14965;50.660;13.226;2023-02-15T06:25:05;96047.53;;;-2.81;95.45
30110;BME280;14965;50.660;13.226;2023-02-15T06:27:31;96044.84;;;-2.81;95.21
30110;BME280;14965;50.660;13.226;2023-02-15T06:29:56;96042.94;;;-2.81;95.43
30110;BME280;14965;50.660;13.226;2023-02-15T06:32:22;96045.63;;;-2.81;95.51
30110;BME280;14965;50.660;13.226;2023-02-15T06:34:48;96031.81;;;-2.79;95.45
30110;BME280;14965;50.660;13.226;2023-02-15T06:37:14;96034.19;;;-2.78;95.52
30110;BME280;14965;50.660;13.226;2023-02-15T06:39:41;96031.63;;;-2.74;95.79
30110;BME280;14965;50.660;13.226;2023-02-15T06:42:07;96041.00;;;-2.71;95.59
30110;BME280;14965;50.660;13.226;2023-02-15T06:44:33;96031.13;;;-2.67;95.71
30110;BME280;14965;50.660;13.226;2023-02-15T06:46:58;96041.94;;;-2.67;95.76
30110;BME280;14965;50.660;13.226;2023-02-15T06:49:24;96041.94;;;-2.67;95.40
30110;BME280;14965;50.660;13.226;2023-02-15T06:51:50;96044.31;;;-2.66;95.88
30110;BME280;14965;50.660;13.226;2023-02-15T06:54:16;96046.38;;;-2.63;95.36
30110;BME280;14965;50.660;13.226;2023-02-15T06:56:43;96043.34;;;-2.61;95.71
30110;BME280;14965;50.660;13.226;2023-02-15T06:59:09;96048.09;;;-2.58;95.80
30110;BME280;14965;50.660;13.226;2023-02-15T07:01:35;96044.28;;;-2.57;95.35
30110;BME280;14965;50.660;13.226;2023-02-15T07:04:01;96037.75;;;-2.56;95.75
30110;BME280;14965;50.660;13.226;2023-02-15T07:06:31;96045.84;;;-2.56;95.59
30110;BME280;14965;50.660;13.226;2023-02-15T07:08:57;96042.03;;;-2.55;95.47
30110;BME280;14965;50.660;13.226;2023-02-15T07:11:23;96042.19;;;-2.52;95.46
30110;BME280;14965;50.660;13.226;2023-02-15T07:13:50;96039.16;;;-2.50;95.28
30110;BME280;14965;50.660;13.226;2023-02-15T07:16:16;96042.31;;;-2.48;95.18
30110;BME280;14965;50.660;13.226;2023-02-15T07:18:42;96046.28;;;-2.45;95.17
30110;BME280;14965;50.660;13.226;2023-02-15T07:21:08;96047.53;;;-2.43;95.51
30110;BME280;14965;50.660;13.226;2023-02-15T07:23:34;96038.78;;;-2.40;95.43
30110;BME280;14965;50.660;13.226;2023-02-15T07:26:00;96030.47;;;-2.35;95.13
30110;BME280;14965;50.660;13.226;2023-02-15T07:28:26;96024.56;;;-2.28;95.51
30110;BME280;14965;50.660;13.226;2023-02-15T07:30:54;96019.75;;;-2.22;95.73
30110;BME280;14965;50.660;13.226;2023-02-15T07:33:20;96019.53;;;-2.17;95.77
30110;BME280;14965;50.660;13.226;2023-02-15T07:35:49;96014.25;;;-2.14;95.76
30110;BME280;14965;50.660;13.226;2023-02-15T07:38:16;96014.41;;;-2.10;95.58
30110;BME280;14965;50.660;13.226;2023-02-15T07:40:42;96007.69;;;-2.04;95.97
30110;BME280;14965;50.660;13.226;2023-02-15T07:43:08;95999.81;;;-1.97;96.18
30110;BME280;14965;50.660;13.226;2023-02-15T07:45:33;95998.50;;;-1.91;96.01
30110;BME280;14965;50.660;13.226;2023-02-15T07:48:02;95999.56;;;-1.83;96.17
30110;BME280;14965;50.660;13.226;2023-02-15T07:50:28;96001.72;;;-1.77;96.12
30110;BME280;14965;50.660;13.226;2023-02-15T07:52:54;95996.09;;;-1.71;96.37
30110;BME280;14965;50.660;13.226;2023-02-15T07:55:20;95983.16;;;-1.66;96.52
30110;BME280;14965;50.660;13.226;2023-02-15T07:57:48;95984.88;;;-1.61;96.25
30110;BME280;14965;50.660;13.226;2023-02-15T08:00:17;95985.44;;;-1.56;96.25
30110;BME280;14965;50.660;13.226;2023-02-15T08:02:48;95982.09;;;-1.53;96.07
30110;BME280;14965;50.660;13.226;2023-02-15T08:05:15;95981.09;;;-1.48;96.42
30110;BME280;14965;50.660;13.226;2023-02-15T08:07:41;95983.56;;;-1.43;96.41
30110;BME280;14965;50.660;13.226;2023-02-15T08:10:08;95973.00;;;-1.36;96.65
30110;BME280;14965;50.660;13.226;2023-02-15T08:12:34;95966.56;;;-1.31;96.62
30110;BME280;14965;50.660;13.226;2023-02-15T08:14:59;95966.81;;;-1.24;96.52
30110;BME280;14965;50.660;13.226;2023-02-15T08:17:25;95962.31;;;-1.20;96.65
30110;BME280;14965;50.660;13.226;2023-02-15T08:19:51;95963.66;;;-1.14;96.83
30110;BME280;14965;50.660;13.226;2023-02-15T08:22:18;95960.72;;;-1.09;96.84
30110;BME280;14965;50.660;13.226;2023-02-15T08:24:44;95952.84;;;-1.02;97.02
30110;BME280;14965;50.660;13.226;2023-02-15T08:27:11;95958.50;;;-0.94;97.09
30110;BME280;14965;50.660;13.226;2023-02-15T08:29:38;95955.69;;;-0.86;97.03
30110;BME280;14965;50.660;13.226;2023-02-15T08:32:08;95952.06;;;-0.78;97.37
30110;BME280;14965;50.660;13.226;2023-02-15T08:34:42;95954.66;;;-0.69;97.33
30110;BME280;14965;50.660;13.226;2023-02-15T08:37:09;95947.56;;;-0.61;97.09
30110;BME280;14965;50.660;13.226;2023-02-15T08:39:36;95944.25;;;-0.55;97.07
30110;BME280;14965;50.660;13.226;2023-02-15T08:42:02;95951.03;;;-0.48;97.15
30110;BME280;14965;50.660;13.226;2023-02-15T08:44:28;95954.44;;;-0.39;97.34
30110;BME280;14965;50.660;13.226;2023-02-15T08:46:54;95946.63;;;-0.29;97.62
30110;BME280;14965;50.660;13.226;2023-02-15T08:49:21;95949.63;;;-0.18;97.48
30110;BME280;14965;50.660;13.226;2023-02-15T08:51:49;95944.97;;;-0.05;97.83
30110;BME280;14965;50.660;13.226;2023-02-15T08:54:17;95946.28;;;0.13;98.09
30110;BME280;14965;50.660;13.226;2023-02-15T08:56:46;95940.56;;;0.31;97.98
30110;BME280;14965;50.660;13.226;2023-02-15T08:59:15;95944.53;;;0.49;97.36
30110;BME280;14965;50.660;13.226;2023-02-15T09:01:42;95943.19;;;0.71;97.69
30110;BME280;14965;50.660;13.226;2023-02-15T09:04:10;95939.97;;;0.97;97.60
30110;BME280;14965;50.660;13.226;2023-02-15T09:06:37;95933.31;;;1.26;96.59
30110;BME280;14965;50.660;13.226;2023-02-15T09:09:03;95935.19;;;1.57;94.47
30110;BME280;14965;50.660;13.226;2023-02-15T09:11:33;95943.31;;;1.89;92.50
30110;BME280;14965;50.660;13.226;2023-02-15T09:14:05;95929.84;;;2.15;90.57
30110;BME280;14965;50.660;13.226;2023-02-15T09:16:34;95931.84;;;2.38;87.87
30110;BME280;14965;50.660;13.226;2023-02-15T09:19:00;95928.25;;;2.53;85.26
30110;BME280;14965;50.660;13.226;2023-02-15T09:21:28;95924.66;;;2.68;83.72
30110;BME280;14965;50.660;13.226;2023-02-15T09:23:58;95929.56;;;2.82;84.57
30110;BME280;14965;50.660;13.226;2023-02-15T09:26:26;95921.16;;;2.91;86.07
30110;BME280;14965;50.660;13.226;2023-02-15T09:28:54;95921.59;;;2.93;86.96
30110;BME280;14965;50.660;13.226;2023-02-15T09:31:24;95927.44;;;2.95;87.09
30110;BME280;14965;50.660;13.226;2023-02-15T09:33:51;95924.41;;;3.00;87.37
30110;BME280;14965;50.660;13.226;2023-02-15T09:36:19;95928.50;;;3.10;87.42
30110;BME280;14965;50.660;13.226;2023-02-15T09:38:46;95922.03;;;3.21;87.31
30110;BME280;14965;50.660;13.226;2023-02-15T09:41:40;95921.50;;;3.35;87.05
30110;BME280;14965;50.660;13.226;2023-02-15T09:44:24;95928.75;;;3.50;86.61
30110;BME280;14965;50.660;13.226;2023-02-15T09:47:14;95926.25;;;3.65;86.15
30110;BME280;14965;50.660;13.226;2023-02-15T09:49:55;95918.72;;;3.85;84.06
30110;BME280;14965;50.660;13.226;2023-02-15T09:52:46;95917.81;;;4.04;82.17
30110;BME280;14965;50.660;13.226;2023-02-15T09:55:38;95919.97;;;4.21;80.54
30110;BME280;14965;50.660;13.226;2023-02-15T09:58:25;95920.53;;;4.34;79.87
30110;BME280;14965;50.660;13.226;2023-02-15T10:01:02;95906.19;;;4.44;80.60
30110;BME280;14965;50.660;13.226;2023-02-15T10:04:11;95915.69;;;4.54;81.11
30110;BME280;14965;50.660;13.226;2023-02-15T10:07:15;95922.47;;;4.67;80.70
30110;BME280;14965;50.660;13.226;2023-02-15T10:15:02;95921.97;;;4.95;80.09
30110;BME280;14965;50.660;13.226;2023-02-15T10:36:11;95904.88;;;6.12;70.62
30110;BME280;14965;50.660;13.226;2023-02-15T10:39:20;95902.22;;;6.30;71.56
30110;BME280;14965;50.660;13.226;2023-02-15T10:42:58;95906.97;;;6.47;74.32
30110;BME280;14965;50.660;13.226;2023-02-15T10:57:24;95877.72;;;7.30;71.93
30110;BME280;14965;50.660;13.226;2023-02-15T11:08:34;95865.44;;;8.02;67.47
30110;BME280;14965;50.660;13.226;2023-02-15T11:15:11;95848.41;;;8.50;68.81
30110;BME280;14965;50.660;13.226;2023-02-15T11:22:35;95846.19;;;8.90;65.19
30110;BME280;14965;50.660;13.226;2023-02-15T11:26:03;95846.09;;;9.04;67.57
30110;BME280;14965;50.660;13.226;2023-02-15T11:29:27;95837.38;;;9.13;66.02
30110;BME280;14965;50.660;13.226;2023-02-15T11:37:15;95824.16;;;9.38;62.08
30110;BME280;14965;50.660;13.226;2023-02-15T11:40:19;95827.22;;;9.51;61.37
30110;BME280;14965;50.660;13.226;2023-02-15T11:43:04;95816.09;;;9.62;57.15
30110;BME280;14965;50.660;13.226;2023-02-15T11:45:41;95810.41;;;9.76;57.32
30110;BME280;14965;50.660;13.226;2023-02-15T11:48:15;95809.47;;;9.90;56.09
30110;BME280;14965;50.660;13.226;2023-02-15T11:50:43;95810.50;;;10.03;55.54
30110;BME280;14965;50.660;13.226;2023-02-15T11:54:02;95802.50;;;10.16;58.79
30110;BME280;14965;50.660;13.226;2023-02-15T11:57:00;95804.38;;;10.22;64.54
30110;BME280;14965;50.660;13.226;2023-02-15T12:00:14;95798.84;;;10.26;67.15
30110;BME280;14965;50.660;13.226;2023-02-15T12:02:56;95801.94;;;10.28;67.48
30110;BME280;14965;50.660;13.226;2023-02-15T12:05:33;95800.03;;;10.25;66.66
30110;BME280;14965;50.660;13.226;2023-02-15T12:08:12;95802.03;;;10.25;65.53
30110;BME280;14965;50.660;13.226;2023-02-15T12:11:02;95805.56;;;10.25;66.48
30110;BME280;14965;50.660;13.226;2023-02-15T12:17:49;95798.06;;;10.22;57.91
30110;BME280;14965;50.660;13.226;2023-02-15T12:24:56;95793.28;;;10.30;56.14
30110;BME280;14965;50.660;13.226;2023-02-15T12:27:56;95786.97;;;10.29;56.80
30110;BME280;14965;50.660;13.226;2023-02-15T12:31:03;95787.72;;;10.33;58.49
30110;BME280;14965;50.660;13.226;2023-02-15T12:34:08;95779.72;;;10.39;58.72
30110;BME280;14965;50.660;13.226;2023-02-15T12:45:20;95767.19;;;10.61;50.14
30110;BME280;14965;50.660;13.226;2023-02-15T12:47:18;95765.47;;;10.71;51.74
30110;BME280;14965;50.660;13.226;2023-02-15T12:50:04;95757.97;;;10.71;51.14
30110;BME280;14965;50.660;13.226;2023-02-15T12:53:36;95756.56;;;10.60;51.82
30110;BME280;14965;50.660;13.226;2023-02-15T13:03:56;95749.84;;;10.34;52.58
30110;BME280;14965;50.660;13.226;2023-02-15T13:07:29;95750.34;;;10.25;51.15
30110;BME280;14965;50.660;13.226;2023-02-15T13:11:03;95752.25;;;10.28;50.06
30110;BME280;14965;50.660;13.226;2023-02-15T13:17:51;95761.38;;;10.25;44.91
30110;BME280;14965;50.660;13.226;2023-02-15T13:20:54;95758.22;;;10.23;46.26
30110;BME280;14965;50.660;13.226;2023-02-15T13:23:45;95758.19;;;10.27;46.53
30110;BME280;14965;50.660;13.226;2023-02-15T13:26:35;95757.72;;;10.32;45.98
30110;BME280;14965;50.660;13.226;2023-02-15T13:29:46;95757.38;;;10.30;46.49
30110;BME280;14965;50.660;13.226;2023-02-15T13:37:18;95754.25;;;10.24;45.31
30110;BME280;14965;50.660;13.226;2023-02-15T13:40:51;95754.69;;;10.22;44.03
30110;BME280;14965;50.660;13.226;2023-02-15T13:47:55;95761.94;;;10.09;40.45
30110;BME280;14965;50.660;13.226;2023-02-15T14:11:44;95751.69;;;10.10;41.49
30110;BME280;14965;50.660;13.226;2023-02-15T14:14:31;95763.50;;;10.10;41.22
30110;BME280;14965;50.660;13.226;2023-02-15T14:17:09;95754.88;;;10.08;41.66
30110;BME280;14965;50.660;13.226;2023-02-15T14:19:47;95757.25;;;10.06;41.13
30110;BME280;14965;50.660;13.226;2023-02-15T14:22:25;95761.22;;;10.05;40.82
30110;BME280;14965;50.660;13.226;2023-02-15T14:25:11;95757.25;;;10.06;40.87
30110;BME280;14965;50.660;13.226;2023-02-15T14:27:54;95754.91;;;10.05;40.70
30110;BME280;14965;50.660;13.226;2023-02-15T14:30:26;95756.97;;;9.97;40.71
30110;BME280;14965;50.660;13.226;2023-02-15T14:32:59;95754.28;;;9.90;40.53
30110;BME280;14965;50.660;13.226;2023-02-15T14:35:30;95761.84;;;9.82;40.68
30110;BME280;14965;50.660;13.226;2023-02-15T14:38:05;95768.63;;;9.78;41.75
30110;BME280;14965;50.660;13.226;2023-02-15T14:40:42;95765.91;;;9.74;41.94
30110;BME280;14965;50.660;13.226;2023-02-15T14:43:27;95759.94;;;9.79;41.95
30110;BME280;14965;50.660;13.226;2023-02-15T14:46:01;95759.91;;;9.83;43.00
30110;BME280;14965;50.660;13.226;2023-02-15T14:48:33;95763.06;;;9.81;43.10
30110;BME280;14965;50.660;13.226;2023-02-15T14:51:03;95761.16;;;9.78;42.86
30110;BME280;14965;50.660;13.226;2023-02-15T14:53:37;95761.97;;;9.75;43.66
30110;BME280;14965;50.660;13.226;2023-02-15T14:56:18;95761.63;;;9.69;43.91
30110;BME280;14965;50.660;13.226;2023-02-15T14:59:16;95760.53;;;9.60;44.50
30110;BME280;14965;50.660;13.226;2023-02-15T15:01:55;95765.75;;;9.51;44.96
30110;BME280;14965;50.660;13.226;2023-02-15T15:04:26;95771.72;;;9.45;45.85
30110;BME280;14965;50.660;13.226;2023-02-15T15:07:09;95774.63;;;9.28;46.46
30110;BME280;14965;50.660;13.226;2023-02-15T15:09:42;95769.25;;;9.13;47.30
30110;BME280;14965;50.660;13.226;2023-02-15T15:12:38;95773.75;;;8.96;46.96
30110;BME280;14965;50.660;13.226;2023-02-15T15:15:06;95773.41;;;8.91;46.24
30110;BME280;14965;50.660;13.226;2023-02-15T15:17:57;95769.13;;;8.83;47.05
30110;BME280;14965;50.660;13.226;2023-02-15T15:20:44;95763.66;;;8.76;47.18
30110;BME280;14965;50.660;13.226;2023-02-15T15:23:39;95772.38;;;8.70;46.18
30110;BME280;14965;50.660;13.226;2023-02-15T15:26:31;95771.19;;;8.68;47.40